Time;durP1;ratioP1;P1;durP2;ratioP2;P2;SDS_P1;SDS_P2;PMS_P1;PMS_P2;Temp;Humidity;BMP_temperature;BMP_pressure;BME280_temperature;BME280_humidity;BME280_pressure;Samples;Min_cycle;Max_cycle;Signal;HPM_P1;HPM_P2
2024/02/23 00:01:44;;;;;;;4.03;1.70;;;7.90;99.90;;;;;;798857;177;26423;-78
2024/02/23 00:04:11;;;;;;;31.70;13.50;;;7.80;99.90;;;;;;798030;177;26547;-79
2024/02/23 00:06:37;;;;;;;12.87;6.73;;;7.80;99.90;;;;;;802164;176;27112;-78
2024/02/23 00:09:04;;;;;;;14.63;7.40;;;7.70;99.90;;;;;;799386;177;26968;-79
2024/02/23 00:11:33;;;;;;;4.07;2.40;;;7.70;99.90;;;;;;797544;176;26426;-79
2024/02/23 00:13:57;;;;;;;3.80;2.03;;;7.80;99.90;;;;;;796069;177;26422;-79
2024/02/23 00:16:24;;;;;;;15.70;7.60;;;7.80;99.90;;;;;;796020;177;26414;-80
2024/02/23 00:18:51;;;;;;;6.17;3.20;;;7.60;99.90;;;;;;798214;177;26460;-80
2024/02/23 00:21:17;;;;;;;2.17;1.93;;;7.40;99.90;;;;;;793426;177;26976;-80
2024/02/23 00:23:44;;;;;;;1.93;1.70;;;7.20;99.90;;;;;;801455;177;26423;-80
2024/02/23 00:26:10;;;;;;;1.83;1.60;;;7.20;99.90;;;;;;796037;177;26408;-80
2024/02/23 00:28:37;;;;;;;9.30;4.90;;;7.00;99.90;;;;;;801332;177;26479;-80
2024/02/23 00:31:04;;;;;;;21.90;10.97;;;6.90;99.90;;;;;;792263;177;26430;-79
2024/02/23 00:33:30;;;;;;;38.93;16.37;;;6.80;99.90;;;;;;796162;177;26429;-80
2024/02/23 00:35:57;;;;;;;3.50;2.43;;;6.80;99.90;;;;;;802071;176;26579;-79
2024/02/23 00:38:23;;;;;;;5.40;2.73;;;6.70;99.90;;;;;;795453;178;26454;-79
2024/02/23 00:40:50;;;;;;;6.33;3.83;;;6.70;99.90;;;;;;793060;179;26978;-79
2024/02/23 00:43:17;;;;;;;2.87;1.90;;;6.70;99.90;;;;;;800403;178;27003;-79
2024/02/23 00:45:43;;;;;;;8.33;5.13;;;6.70;99.90;;;;;;799253;177;26425;-79
2024/02/23 00:48:10;;;;;;;20.27;9.07;;;6.60;99.90;;;;;;801335;178;26450;-80
2024/02/23 00:50:37;;;;;;;22.23;10.60;;;6.60;99.90;;;;;;797996;178;26420;-79
2024/02/23 00:53:03;;;;;;;8.83;4.73;;;6.50;99.90;;;;;;792634;178;26437;-79
2024/02/23 00:55:30;;;;;;;12.63;5.83;;;6.50;99.90;;;;;;800559;178;26424;-79
2024/02/23 00:57:56;;;;;;;8.20;4.67;;;6.50;99.90;;;;;;796869;176;26529;-79
2024/02/23 01:00:23;;;;;;;9.13;3.83;;;6.60;99.90;;;;;;793519;178;26430;-80
2024/02/23 01:02:50;;;;;;;8.07;5.03;;;6.60;99.90;;;;;;804379;176;26428;-79
2024/02/23 01:05:16;;;;;;;6.80;3.00;;;6.60;99.90;;;;;;800414;177;26413;-79
2024/02/23 01:07:43;;;;;;;6.83;4.07;;;6.60;99.90;;;;;;798849;177;26453;-79
2024/02/23 01:10:10;;;;;;;7.00;4.00;;;6.50;99.90;;;;;;797327;177;26430;-79
2024/02/23 01:12:36;;;;;;;19.53;9.30;;;6.60;99.90;;;;;;805219;177;27072;-80
2024/02/23 01:15:03;;;;;;;5.30;2.57;;;6.60;99.90;;;;;;799717;177;26482;-79
2024/02/23 01:17:30;;;;;;;6.20;3.30;;;6.60;99.90;;;;;;797146;174;26467;-79
2024/02/23 01:19:57;;;;;;;18.33;9.50;;;6.50;99.90;;;;;;801205;176;26442;-79
2024/02/23 01:22:23;;;;;;;7.83;3.70;;;6.50;99.90;;;;;;799251;176;26426;-79
2024/02/23 01:24:50;;;;;;;21.67;10.33;;;6.60;99.90;;;;;;801013;176;26984;-79
2024/02/23 01:27:16;;;;;;;4.63;2.50;;;6.50;99.90;;;;;;804456;175;26607;-80
2024/02/23 01:29:43;;;;;;;8.33;2.57;;;6.50;99.90;;;;;;800196;177;26462;-79
2024/02/23 01:32:10;;;;;;;6.33;3.37;;;6.50;99.90;;;;;;793973;177;26439;-79
2024/02/23 01:34:36;;;;;;;5.27;2.33;;;6.50;99.90;;;;;;794129;177;26450;-79
2024/02/23 01:37:03;;;;;;;3.97;1.70;;;6.40;99.90;;;;;;797454;177;26498;-78
2024/02/23 01:39:30;;;;;;;6.77;3.53;;;6.40;99.90;;;;;;805071;177;26463;-79
2024/02/23 01:41:56;;;;;;;3.00;1.80;;;6.30;99.90;;;;;;801423;175;26450;-79
2024/02/23 01:44:23;;;;;;;2.67;1.53;;;6.20;99.90;;;;;;795630;175;28043;-79
2024/02/23 01:46:50;;;;;;;2.57;1.70;;;6.20;99.90;;;;;;791529;178;26429;-80
2024/02/23 01:49:16;;;;;;;16.93;10.37;;;6.20;99.90;;;;;;798561;176;26438;-78
2024/02/23 01:51:43;;;;;;;2.47;1.80;;;6.20;99.90;;;;;;795138;177;26979;-78
2024/02/23 01:54:10;;;;;;;5.97;2.53;;;6.30;99.90;;;;;;797240;178;26461;-80
2024/02/23 01:56:36;;;;;;;5.20;2.83;;;6.20;99.90;;;;;;792538;175;26747;-79
2024/02/23 01:59:03;;;;;;;6.20;1.97;;;6.30;99.90;;;;;;794499;177;26446;-80
2024/02/23 02:01:30;;;;;;;5.73;2.40;;;6.30;99.90;;;;;;795674;178;26467;-80
2024/02/23 02:03:56;;;;;;;5.53;2.23;;;6.30;99.90;;;;;;792488;178;26450;-80
2024/02/23 02:06:23;;;;;;;25.87;12.80;;;6.30;99.90;;;;;;801491;178;26445;-79
2024/02/23 02:08:50;;;;;;;6.77;3.17;;;6.30;99.90;;;;;;798315;178;26445;-79
2024/02/23 02:11:16;;;;;;;13.20;6.73;;;6.20;99.90;;;;;;799428;178;26409;-79
2024/02/23 02:13:43;;;;;;;14.40;6.90;;;6.30;99.90;;;;;;790294;178;26433;-79
2024/02/23 02:16:11;;;;;;;5.40;2.10;;;6.20;99.90;;;;;;792105;175;26432;-79
2024/02/23 02:18:36;;;;;;;3.23;1.53;;;6.20;99.90;;;;;;803539;173;26496;-79
2024/02/23 02:21:03;;;;;;;3.03;1.50;;;6.30;99.90;;;;;;794386;177;26429;-78
2024/02/23 02:23:30;;;;;;;3.47;1.60;;;6.30;99.90;;;;;;802676;177;26968;-79
2024/02/23 02:25:57;;;;;;;2.70;1.60;;;6.20;99.90;;;;;;801406;177;26446;-79
2024/02/23 02:28:24;;;;;;;5.30;1.50;;;6.10;99.90;;;;;;796510;177;26466;-79
2024/02/23 02:30:50;;;;;;;3.73;1.37;;;6.10;99.90;;;;;;800274;177;26428;-80
2024/02/23 02:33:17;;;;;;;8.90;3.10;;;6.20;99.90;;;;;;804032;177;26449;-79
2024/02/23 02:35:43;;;;;;;27.97;12.07;;;6.20;99.90;;;;;;796034;177;26434;-79
2024/02/23 02:38:11;;;;;;;16.97;7.27;;;6.20;99.90;;;;;;803127;176;27114;-79
2024/02/23 02:40:37;;;;;;;14.83;6.10;;;6.20;99.90;;;;;;801354;176;26455;-78
2024/02/23 02:43:04;;;;;;;7.63;4.33;;;6.10;99.90;;;;;;795705;177;26434;-78
2024/02/23 02:45:31;;;;;;;39.63;14.97;;;6.10;99.90;;;;;;795661;177;26429;-78
2024/02/23 02:47:57;;;;;;;15.97;5.67;;;6.10;99.90;;;;;;804555;174;27268;-80
2024/02/23 02:50:25;;;;;;;8.43;2.80;;;6.20;99.90;;;;;;805253;177;26484;-79
2024/02/23 02:52:51;;;;;;;7.83;2.50;;;6.10;99.90;;;;;;802565;177;26485;-79
2024/02/23 02:55:18;;;;;;;6.63;1.93;;;6.10;99.90;;;;;;807112;176;26476;-79
2024/02/23 02:57:44;;;;;;;9.20;1.73;;;6.10;99.90;;;;;;801725;176;26476;-78
2024/02/23 03:00:12;;;;;;;6.30;1.87;;;6.10;99.90;;;;;;799648;177;27005;-79
2024/02/23 03:02:38;;;;;;;38.87;13.20;;;6.10;99.90;;;;;;799779;177;26967;-79
2024/02/23 03:05:05;;;;;;;16.97;6.17;;;6.20;99.90;;;;;;796387;178;26472;-79
2024/02/23 03:07:32;;;;;;;65.67;26.70;;;6.20;99.90;;;;;;799659;178;26484;-79
2024/02/23 03:09:58;;;;;;;15.30;6.87;;;6.10;99.90;;;;;;807185;177;26452;-78
2024/02/23 03:12:25;;;;;;;8.10;3.00;;;6.10;99.90;;;;;;800485;177;26410;-80
2024/02/23 03:14:52;;;;;;;6.03;2.10;;;6.10;99.90;;;;;;800908;178;26419;-80
2024/02/23 03:17:18;;;;;;;6.27;2.10;;;6.00;99.90;;;;;;792768;179;26534;-78
2024/02/23 03:19:45;;;;;;;2.93;1.57;;;6.10;99.90;;;;;;795983;178;26430;-80
2024/02/23 03:22:12;;;;;;;4.87;1.50;;;6.10;99.90;;;;;;800762;178;26456;-80
2024/02/23 03:24:38;;;;;;;6.80;2.07;;;6.10;99.90;;;;;;802281;176;26452;-79
2024/02/23 03:27:05;;;;;;;5.60;2.17;;;6.10;99.90;;;;;;794434;175;27015;-78
2024/02/23 03:29:31;;;;;;;6.03;1.90;;;6.00;99.90;;;;;;803953;175;26444;-80
2024/02/23 03:31:58;;;;;;;5.07;1.90;;;6.20;99.90;;;;;;803410;177;26426;-79
2024/02/23 03:34:25;;;;;;;9.53;2.00;;;6.30;99.90;;;;;;798803;177;26428;-79
2024/02/23 03:36:51;;;;;;;8.87;2.00;;;6.20;99.90;;;;;;798468;177;27010;-79
2024/02/23 03:39:18;;;;;;;5.73;1.63;;;6.20;99.90;;;;;;805508;176;26455;-79
2024/02/23 03:41:44;;;;;;;5.87;2.30;;;6.00;99.90;;;;;;806621;176;26967;-81
2024/02/23 03:44:11;;;;;;;6.87;2.10;;;6.10;99.90;;;;;;805550;177;26432;-79
2024/02/23 03:46:38;;;;;;;4.83;1.63;;;6.10;99.90;;;;;;799229;175;26447;-79
2024/02/23 03:49:04;;;;;;;3.77;1.70;;;6.10;99.90;;;;;;801570;178;26450;-79
2024/02/23 03:51:32;;;;;;;4.17;1.57;;;6.20;99.90;;;;;;793542;177;26445;-79
2024/02/23 03:53:57;;;;;;;5.77;1.90;;;6.20;99.90;;;;;;805959;176;27190;-79
2024/02/23 03:56:24;;;;;;;5.43;1.90;;;6.20;99.90;;;;;;793093;176;26444;-79
2024/02/23 03:58:51;;;;;;;6.63;2.10;;;6.20;99.90;;;;;;801393;175;27011;-79
2024/02/23 04:01:17;;;;;;;5.10;1.93;;;6.20;99.90;;;;;;792644;177;26426;-79
2024/02/23 04:03:44;;;;;;;8.00;1.93;;;6.20;99.90;;;;;;790721;177;26443;-79
2024/02/23 04:06:10;;;;;;;6.47;2.00;;;6.30;99.90;;;;;;789875;178;26436;-79
2024/02/23 04:08:37;;;;;;;3.83;1.70;;;6.30;99.90;;;;;;789485;182;26471;-80
2024/02/23 04:11:04;;;;;;;4.80;1.70;;;6.40;99.90;;;;;;789552;182;26430;-79
2024/02/23 04:13:30;;;;;;;6.93;2.20;;;6.40;99.90;;;;;;789500;179;26430;-79
2024/02/23 04:15:57;;;;;;;5.73;2.40;;;6.40;99.90;;;;;;796624;178;27187;-78
2024/02/23 04:18:23;;;;;;;4.33;1.83;;;6.30;99.90;;;;;;795518;177;26465;-79
2024/02/23 04:20:50;;;;;;;11.73;3.03;;;6.40;99.90;;;;;;803241;178;26461;-79
2024/02/23 04:23:17;;;;;;;4.77;1.80;;;6.30;99.90;;;;;;805794;176;26476;-79
2024/02/23 04:25:43;;;;;;;5.63;2.10;;;6.30;99.90;;;;;;805812;177;26448;-79
2024/02/23 04:28:10;;;;;;;4.83;2.40;;;6.30;99.90;;;;;;802717;176;26452;-80
2024/02/23 04:30:36;;;;;;;4.37;2.00;;;6.40;99.90;;;;;;805915;177;26449;-79
2024/02/23 04:33:03;;;;;;;4.40;1.90;;;6.40;99.90;;;;;;805818;178;26448;-79
2024/02/23 04:35:30;;;;;;;5.10;2.10;;;6.40;99.90;;;;;;804418;176;26458;-79
2024/02/23 04:37:56;;;;;;;5.20;2.03;;;6.40;99.90;;;;;;806275;177;26489;-80
2024/02/23 04:40:23;;;;;;;5.93;1.80;;;6.30;99.90;;;;;;791625;177;26467;-78
2024/02/23 04:42:49;;;;;;;6.57;2.00;;;6.30;99.90;;;;;;795414;179;26437;-79
2024/02/23 04:45:16;;;;;;;5.30;1.60;;;6.30;99.90;;;;;;801095;177;26563;-82
2024/02/23 04:47:43;;;;;;;4.70;1.60;;;6.20;99.90;;;;;;806425;176;26464;-80
2024/02/23 04:50:10;;;;;;;6.63;2.00;;;6.20;99.90;;;;;;793120;178;26421;-80
2024/02/23 04:52:36;;;;;;;3.73;2.00;;;6.10;99.90;;;;;;799388;177;26430;-80
2024/02/23 04:55:03;;;;;;;6.57;1.93;;;6.10;99.90;;;;;;793693;177;26422;-79
2024/02/23 04:57:29;;;;;;;5.70;2.20;;;6.10;99.90;;;;;;801347;177;26454;-80
2024/02/23 04:59:56;;;;;;;7.17;2.20;;;6.20;99.90;;;;;;803688;177;26430;-80
2024/02/23 05:02:23;;;;;;;8.87;2.43;;;6.10;99.90;;;;;;793921;177;26422;-80
2024/02/23 05:04:49;;;;;;;5.90;1.83;;;6.10;99.90;;;;;;796050;177;26991;-78
2024/02/23 05:07:16;;;;;;;7.83;2.07;;;6.10;99.90;;;;;;805560;177;26456;-79
2024/02/23 05:09:43;;;;;;;3.13;1.73;;;6.10;99.90;;;;;;794429;177;26441;-79
2024/02/23 05:12:09;;;;;;;7.83;2.27;;;6.10;99.90;;;;;;805769;177;27003;-79
2024/02/23 05:14:36;;;;;;;5.67;2.10;;;6.10;99.90;;;;;;804914;176;26447;-79
2024/02/23 05:17:03;;;;;;;7.57;3.33;;;6.10;99.90;;;;;;798803;174;26436;-79
2024/02/23 05:19:29;;;;;;;5.77;2.00;;;6.00;99.90;;;;;;807001;177;26449;-80
2024/02/23 05:21:56;;;;;;;5.17;1.80;;;5.80;99.90;;;;;;799626;178;26439;-79
2024/02/23 05:24:22;;;;;;;5.33;1.77;;;5.80;99.90;;;;;;798102;178;26529;-80
2024/02/23 05:26:49;;;;;;;7.90;1.87;;;5.80;99.90;;;;;;798732;177;26422;-80
2024/02/23 05:29:18;;;;;;;5.97;2.03;;;6.00;99.90;;;;;;794688;178;26426;-79
2024/02/23 05:31:46;;;;;;;4.60;1.80;;;6.00;99.90;;;;;;799248;177;26446;-79
2024/02/23 05:34:13;;;;;;;7.17;1.90;;;5.90;99.90;;;;;;800107;178;26480;-80
2024/02/23 05:36:39;;;;;;;7.30;1.90;;;6.00;99.90;;;;;;800507;178;26418;-80
2024/02/23 05:39:07;;;;;;;5.90;1.97;;;5.90;99.90;;;;;;804635;178;26438;-80
2024/02/23 05:41:33;;;;;;;3.83;1.80;;;5.70;99.90;;;;;;800974;178;26433;-80
2024/02/23 05:44:00;;;;;;;4.63;2.33;;;5.50;99.90;;;;;;801802;178;26460;-80
2024/02/23 05:46:26;;;;;;;3.63;2.17;;;5.40;99.90;;;;;;799900;177;26432;-80
2024/02/23 05:48:53;;;;;;;6.33;1.90;;;5.60;99.90;;;;;;802911;177;26472;-80
2024/02/23 05:51:19;;;;;;;8.70;1.97;;;5.60;99.90;;;;;;805597;177;26436;-80
2024/02/23 05:53:46;;;;;;;6.30;2.57;;;5.50;99.90;;;;;;803630;177;27632;-79
2024/02/23 05:56:12;;;;;;;8.40;2.30;;;5.30;99.90;;;;;;804353;177;26438;-80
2024/02/23 05:58:39;;;;;;;9.93;2.70;;;5.20;99.90;;;;;;800697;177;27029;-80
2024/02/23 06:01:07;;;;;;;6.40;2.00;;;5.20;99.90;;;;;;799430;177;26438;-80
2024/02/23 06:03:32;;;;;;;10.00;2.17;;;5.30;99.90;;;;;;804204;177;26464;-79
2024/02/23 06:05:59;;;;;;;7.43;2.40;;;5.30;99.90;;;;;;805337;176;26560;-79
2024/02/23 06:08:26;;;;;;;8.23;2.20;;;5.30;99.90;;;;;;790304;177;26765;-79
2024/02/23 06:10:52;;;;;;;7.37;2.00;;;5.20;99.90;;;;;;800382;177;26430;-80
2024/02/23 06:13:19;;;;;;;5.30;2.13;;;5.20;99.90;;;;;;801398;177;26430;-80
2024/02/23 06:15:45;;;;;;;7.47;2.10;;;5.40;99.90;;;;;;796614;177;26570;-80
2024/02/23 06:18:12;;;;;;;8.93;2.10;;;5.50;99.90;;;;;;806136;174;26485;-79
2024/02/23 06:20:39;;;;;;;7.57;2.13;;;5.70;99.90;;;;;;802536;177;26428;-79
2024/02/23 06:23:06;;;;;;;7.23;3.00;;;5.80;99.90;;;;;;793790;177;26446;-79
2024/02/23 06:25:32;;;;;;;8.27;1.93;;;5.90;99.90;;;;;;801450;177;26571;-78
2024/02/23 06:27:59;;;;;;;10.23;2.37;;;5.90;99.90;;;;;;796275;177;26473;-79
2024/02/23 06:30:25;;;;;;;8.13;2.20;;;5.80;99.90;;;;;;807054;176;26422;-78
2024/02/23 06:32:52;;;;;;;6.67;2.13;;;5.80;99.90;;;;;;802258;177;26457;-81
2024/02/23 06:35:19;;;;;;;6.37;2.43;;;5.70;99.90;;;;;;797913;178;26970;-80
2024/02/23 06:37:45;;;;;;;7.20;2.20;;;5.80;99.90;;;;;;800568;176;26471;-80
2024/02/23 06:40:12;;;;;;;9.23;2.33;;;5.90;99.90;;;;;;797934;178;26966;-80
2024/02/23 06:42:38;;;;;;;3.80;2.00;;;6.00;99.90;;;;;;805751;176;27001;-80
2024/02/23 06:45:06;;;;;;;5.23;2.00;;;6.00;99.90;;;;;;801944;179;26435;-80
2024/02/23 06:47:40;;;;;;;5.80;2.33;;;6.10;99.90;;;;;;796275;174;26454;-79
2024/02/23 06:50:11;;;;;;;4.53;2.10;;;6.00;99.90;;;;;;802874;178;26479;-79
2024/02/23 06:52:42;;;;;;;6.70;2.07;;;5.90;99.90;;;;;;806177;176;26423;-79
2024/02/23 06:55:10;;;;;;;5.63;2.40;;;5.80;99.90;;;;;;803154;177;26423;-79
2024/02/23 06:57:36;;;;;;;8.97;2.27;;;5.80;99.90;;;;;;800314;178;27007;-79
2024/02/23 07:00:02;;;;;;;8.60;2.13;;;5.80;99.90;;;;;;798916;177;26996;-79
2024/02/23 07:02:31;;;;;;;10.43;2.57;;;5.90;99.90;;;;;;815258;175;26440;-79
2024/02/23 07:04:56;;;;;;;10.47;2.50;;;5.90;99.90;;;;;;797408;176;26437;-78
2024/02/23 07:07:22;;;;;;;6.90;2.40;;;5.90;99.90;;;;;;800004;177;26467;-79
2024/02/23 07:09:50;;;;;;;8.40;2.50;;;5.80;99.90;;;;;;803322;177;26448;-78
2024/02/23 07:12:15;;;;;;;3.57;2.13;;;5.80;99.90;;;;;;804058;176;26468;-79
2024/02/23 07:14:42;;;;;;;8.03;2.20;;;5.80;99.90;;;;;;800227;177;26427;-79
2024/02/23 07:17:09;;;;;;;11.70;2.40;;;5.90;99.90;;;;;;800589;177;27090;-79
2024/02/23 07:19:35;;;;;;;5.57;2.30;;;6.00;99.90;;;;;;796357;177;26431;-80
2024/02/23 07:22:02;;;;;;;10.00;2.17;;;6.10;99.90;;;;;;807394;176;26962;-79
2024/02/23 07:24:30;;;;;;;8.63;2.20;;;6.20;99.90;;;;;;803878;176;26426;-78
2024/02/23 07:26:56;;;;;;;10.43;2.30;;;6.30;99.90;;;;;;803524;177;26519;-78
2024/02/23 07:29:23;;;;;;;9.67;3.13;;;6.40;99.90;;;;;;795542;177;26425;-78
2024/02/23 07:31:49;;;;;;;9.07;2.77;;;6.50;99.90;;;;;;807904;176;26448;-78
2024/02/23 07:34:16;;;;;;;10.23;3.30;;;6.50;99.90;;;;;;801135;177;26473;-78
2024/02/23 07:36:43;;;;;;;8.37;3.80;;;6.60;99.90;;;;;;797745;177;26432;-79
2024/02/23 07:39:09;;;;;;;5.83;2.10;;;6.60;99.90;;;;;;798364;177;27017;-80
2024/02/23 07:44:03;;;;;;;13.20;2.70;;;6.60;99.90;;;;;;783318;180;26551;-78
2024/02/23 07:46:30;;;;;;;9.07;2.73;;;6.60;99.90;;;;;;794395;179;27240;-78
2024/02/23 07:48:56;;;;;;;6.37;2.27;;;6.60;99.90;;;;;;780536;180;26513;-80
2024/02/23 07:51:23;;;;;;;13.30;2.63;;;6.60;99.90;;;;;;759490;186;26531;-79
2024/02/23 07:53:50;;;;;;;5.97;2.63;;;6.70;99.90;;;;;;777340;183;26573;-78
2024/02/23 07:56:16;;;;;;;9.03;2.90;;;6.80;99.90;;;;;;761887;186;26611;-80
2024/02/23 07:58:44;;;;;;;9.50;3.40;;;6.80;99.90;;;;;;776923;182;27139;-78
2024/02/23 08:01:10;;;;;;;8.67;2.60;;;6.80;99.90;;;;;;776740;182;26951;-78
2024/02/23 08:03:37;;;;;;;11.03;3.00;;;6.80;99.90;;;;;;778679;183;27087;-80
2024/02/23 08:06:04;;;;;;;11.10;3.17;;;6.80;99.90;;;;;;767616;186;26871;-77
2024/02/23 08:08:34;;;;;;;7.03;2.13;;;6.90;99.90;;;;;;778715;183;26529;-79
2024/02/23 08:10:58;;;;;;;9.60;2.70;;;7.00;99.90;;;;;;778500;180;27075;-79
2024/02/23 08:13:24;;;;;;;9.90;2.90;;;7.00;99.90;;;;;;779740;183;26517;-80
2024/02/23 08:15:51;;;;;;;7.53;2.33;;;7.10;99.90;;;;;;768726;186;26514;-79
2024/02/23 08:18:18;;;;;;;8.97;2.57;;;7.20;99.90;;;;;;758394;187;26511;-79
2024/02/23 08:20:44;;;;;;;8.00;2.40;;;7.20;99.90;;;;;;777130;183;26500;-81
2024/02/23 08:23:11;;;;;;;8.93;2.63;;;7.30;99.90;;;;;;778260;183;26507;-80
2024/02/23 08:25:37;;;;;;;9.93;2.77;;;7.30;99.90;;;;;;762664;186;26541;-80
2024/02/23 08:28:04;;;;;;;4.43;2.20;;;7.40;99.90;;;;;;776265;183;26551;-82
2024/02/23 08:30:31;;;;;;;8.57;2.60;;;7.60;99.90;;;;;;773967;181;26482;-81
2024/02/23 08:32:58;;;;;;;8.53;2.67;;;7.80;99.90;;;;;;762145;186;26629;-80
2024/02/23 08:35:25;;;;;;;10.03;3.13;;;7.70;99.90;;;;;;773496;181;27416;-79
2024/02/23 08:37:51;;;;;;;11.07;3.20;;;7.70;99.90;;;;;;766215;183;26499;-81
2024/02/23 08:40:18;;;;;;;9.87;2.40;;;7.70;99.90;;;;;;770816;185;26490;-79
2024/02/23 08:42:46;;;;;;;6.50;2.53;;;7.60;99.90;;;;;;778319;184;26506;-81
2024/02/23 08:45:13;;;;;;;7.70;2.53;;;7.70;99.90;;;;;;777818;184;26499;-80
2024/02/23 08:47:38;;;;;;;6.60;2.10;;;7.90;99.90;;;;;;763480;186;27051;-80
2024/02/23 08:50:05;;;;;;;6.07;2.10;;;8.00;99.60;;;;;;779045;180;26474;-79
2024/02/23 08:52:32;;;;;;;12.37;2.43;;;8.20;99.00;;;;;;773191;184;26499;-82
2024/02/23 08:55:00;;;;;;;10.70;2.70;;;8.30;98.60;;;;;;776010;183;26492;-79
2024/02/23 08:57:25;;;;;;;5.77;2.50;;;8.30;98.70;;;;;;780826;183;26524;-79
2024/02/23 08:59:52;;;;;;;11.33;4.13;;;8.20;98.40;;;;;;770878;186;26495;-79
2024/02/23 09:02:19;;;;;;;6.13;2.73;;;8.20;99.00;;;;;;777423;183;26500;-80
2024/02/23 09:04:45;;;;;;;12.70;4.97;;;8.20;99.00;;;;;;780674;183;26506;-79
2024/02/23 09:07:13;;;;;;;8.17;3.77;;;8.10;99.40;;;;;;778503;184;26490;-79
2024/02/23 09:09:39;;;;;;;6.90;2.73;;;8.10;99.40;;;;;;778691;183;26487;-80
2024/02/23 09:12:10;;;;;;;7.63;2.07;;;8.20;99.90;;;;;;767434;186;26525;-79
2024/02/23 09:14:37;;;;;;;7.60;2.50;;;8.20;99.10;;;;;;776090;184;26497;-82
2024/02/23 09:17:01;;;;;;;8.30;2.40;;;8.40;99.10;;;;;;771473;183;26542;-81
2024/02/23 09:19:28;;;;;;;6.10;2.27;;;8.30;98.90;;;;;;780667;181;26516;-81
2024/02/23 09:21:55;;;;;;;7.03;1.90;;;8.40;98.70;;;;;;782186;183;26559;-81
2024/02/23 09:24:21;;;;;;;11.33;2.13;;;8.40;98.80;;;;;;779356;184;26499;-80
2024/02/23 09:26:48;;;;;;;5.13;2.30;;;8.50;98.90;;;;;;780442;183;26544;-81
2024/02/23 09:29:15;;;;;;;10.17;2.43;;;8.50;99.50;;;;;;765700;186;26521;-82
2024/02/23 09:31:41;;;;;;;3.43;1.50;;;8.60;99.90;;;;;;778303;183;26482;-82
2024/02/23 09:34:08;;;;;;;10.87;1.97;;;8.70;98.50;;;;;;778166;183;26492;-82
2024/02/23 09:36:35;;;;;;;3.77;1.70;;;8.70;98.30;;;;;;770148;184;26495;-80
2024/02/23 09:39:04;;;;;;;6.07;1.80;;;8.60;98.50;;;;;;776092;182;26501;-81
2024/02/23 09:41:29;;;;;;;4.10;1.80;;;8.80;98.50;;;;;;776969;183;26566;-82
2024/02/23 09:43:55;;;;;;;4.00;2.10;;;9.20;97.70;;;;;;782414;183;26502;-81
2024/02/23 09:46:22;;;;;;;2.80;1.77;;;9.20;95.70;;;;;;777625;184;26478;-80
2024/02/23 09:48:50;;;;;;;5.70;2.33;;;9.20;96.30;;;;;;769390;183;26564;-81
2024/02/23 09:51:16;;;;;;;13.47;7.83;;;9.40;96.00;;;;;;779023;183;26522;-81
2024/02/23 09:53:43;;;;;;;9.07;3.90;;;9.40;95.20;;;;;;781721;183;26476;-81
2024/02/23 09:56:10;;;;;;;7.60;3.10;;;9.40;95.10;;;;;;777539;181;26532;-83
2024/02/23 09:58:37;;;;;;;8.00;2.23;;;9.40;96.80;;;;;;782675;183;26506;-85
2024/02/23 10:01:03;;;;;;;6.60;2.60;;;9.50;95.00;;;;;;780019;184;26510;-80
2024/02/23 10:03:31;;;;;;;4.70;1.80;;;9.60;95.60;;;;;;777861;183;26490;-83
2024/02/23 10:05:59;;;;;;;4.40;1.97;;;9.50;94.50;;;;;;784001;181;26486;-84
2024/02/23 10:08:25;;;;;;;6.10;1.80;;;9.30;94.90;;;;;;760182;184;26533;-83
2024/02/23 10:10:51;;;;;;;5.07;1.70;;;9.20;94.60;;;;;;775330;183;26486;-83
2024/02/23 10:13:20;;;;;;;3.17;1.70;;;9.30;94.40;;;;;;775207;183;27342;-84
2024/02/23 10:15:45;;;;;;;7.27;2.70;;;9.40;94.40;;;;;;757720;185;26540;-84
2024/02/23 10:18:11;;;;;;;5.87;2.13;;;9.50;94.60;;;;;;776031;182;26501;-89
2024/02/23 10:20:38;;;;;;;6.07;2.60;;;9.60;94.30;;;;;;759457;187;27063;-85
2024/02/23 10:23:05;;;;;;;6.80;2.43;;;9.80;93.40;;;;;;776823;183;26485;-84
2024/02/23 10:25:34;;;;;;;5.07;2.30;;;9.80;94.20;;;;;;783430;182;27152;-84
2024/02/23 10:28:01;;;;;;;4.97;2.37;;;9.70;93.80;;;;;;781477;183;26501;-85
2024/02/23 10:30:28;;;;;;;5.27;1.90;;;10.10;94.20;;;;;;776302;184;26550;-83
2024/02/23 10:32:55;;;;;;;5.80;1.67;;;10.00;92.30;;;;;;779825;180;26498;-84
2024/02/23 10:35:22;;;;;;;4.37;1.80;;;10.00;94.60;;;;;;776428;184;26479;-84
2024/02/23 10:37:52;;;;;;;4.67;1.60;;;10.00;94.20;;;;;;760957;187;26524;-85
2024/02/23 10:40:19;;;;;;;4.23;1.67;;;9.70;93.80;;;;;;779700;183;26499;-86
2024/02/23 10:42:47;;;;;;;10.60;3.87;;;9.70;94.50;;;;;;776573;183;26551;-86
2024/02/23 10:45:14;;;;;;;7.10;2.53;;;9.60;94.40;;;;;;775642;181;26507;-85
2024/02/23 10:47:41;;;;;;;27.13;11.37;;;9.90;94.50;;;;;;762939;186;27051;-84
2024/02/23 10:50:08;;;;;;;34.87;16.30;;;9.70;94.00;;;;;;776191;181;26491;-84
2024/02/23 10:52:36;;;;;;;2.83;1.70;;;9.80;94.50;;;;;;765823;186;26561;-83
2024/02/23 10:55:04;;;;;;;7.70;4.90;;;9.80;93.80;;;;;;777890;183;26477;-85
2024/02/23 10:57:29;;;;;;;6.03;1.77;;;10.10;93.10;;;;;;758560;187;26604;-85
2024/02/23 10:59:56;;;;;;;3.03;1.70;;;10.00;94.60;;;;;;776537;184;26516;-85
2024/02/23 11:02:22;;;;;;;11.87;2.30;;;9.60;96.20;;;;;;772252;185;26506;-84
2024/02/23 11:04:50;;;;;;;3.80;1.93;;;9.60;96.40;;;;;;775871;183;26474;-83
2024/02/23 11:07:16;;;;;;;12.80;5.50;;;9.90;96.40;;;;;;775362;183;26573;-84
2024/02/23 11:09:43;;;;;;;7.43;2.53;;;10.10;94.30;;;;;;771982;184;27035;-83
2024/02/23 11:12:10;;;;;;;8.27;3.07;;;10.10;93.10;;;;;;760508;186;26545;-83
2024/02/23 11:14:36;;;;;;;9.97;4.13;;;9.80;94.80;;;;;;775672;184;26482;-83
2024/02/23 11:17:03;;;;;;;11.03;4.43;;;9.80;94.50;;;;;;757919;187;26523;-82
2024/02/23 11:19:35;;;;;;;12.83;5.73;;;9.70;94.90;;;;;;764184;184;26514;-81
2024/02/23 11:22:02;;;;;;;10.00;4.53;;;9.90;95.50;;;;;;757680;190;26501;-82
2024/02/23 11:24:29;;;;;;;7.80;3.47;;;9.90;94.50;;;;;;776714;181;26486;-81
2024/02/23 11:26:58;;;;;;;6.77;2.30;;;9.80;95.70;;;;;;762480;186;26527;-81
2024/02/23 11:29:28;;;;;;;6.73;2.83;;;9.70;95.10;;;;;;765376;186;26511;-82
2024/02/23 11:31:56;;;;;;;7.80;2.10;;;9.90;95.50;;;;;;782472;182;26528;-80
2024/02/23 11:34:24;;;;;;;36.30;16.33;;;10.00;93.80;;;;;;763355;186;26512;-80
2024/02/23 11:36:52;;;;;;;65.43;26.63;;;10.60;92.80;;;;;;774702;184;26654;-83
2024/02/23 11:39:18;;;;;;;15.77;6.97;;;10.40;92.20;;;;;;773398;184;26489;-82
2024/02/23 11:41:44;;;;;;;43.30;19.67;;;10.00;92.30;;;;;;780181;183;26490;-83
2024/02/23 11:44:13;;;;;;;6.97;2.40;;;10.00;92.40;;;;;;776368;184;26548;-83
2024/02/23 11:46:38;;;;;;;14.87;7.33;;;10.00;92.40;;;;;;771245;183;26491;-84
2024/02/23 11:49:05;;;;;;;12.77;6.47;;;10.10;91.90;;;;;;758571;173;26586;-78
2024/02/23 11:51:31;;;;;;;11.17;5.10;;;10.20;91.80;;;;;;796012;179;28094;-77
2024/02/23 11:54:00;;;;;;;8.80;2.83;;;10.20;91.50;;;;;;764286;187;26515;-79
2024/02/23 11:56:24;;;;;;;7.57;2.43;;;10.30;91.60;;;;;;792453;179;26469;-78
2024/02/23 11:58:51;;;;;;;17.97;8.60;;;10.50;92.30;;;;;;756801;187;26576;-79
2024/02/23 12:01:18;;;;;;;16.27;6.53;;;10.50;91.30;;;;;;755191;187;26537;-78
2024/02/23 12:03:45;;;;;;;70.97;26.67;;;10.20;91.20;;;;;;762279;187;26564;-78
2024/02/23 12:06:11;;;;;;;87.53;37.57;;;10.10;91.40;;;;;;764491;187;26545;-78
2024/02/23 12:08:38;;;;;;;19.20;9.60;;;10.20;92.30;;;;;;766304;188;26514;-78
2024/02/23 12:11:08;;;;;;;8.37;2.73;;;10.20;91.80;;;;;;765480;187;26522;-78
2024/02/23 12:13:32;;;;;;;27.73;10.87;;;10.10;91.00;;;;;;765513;188;26530;-79
2024/02/23 12:15:59;;;;;;;22.43;9.17;;;10.00;91.50;;;;;;765868;187;26479;-78
2024/02/23 12:18:26;;;;;;;27.40;13.13;;;10.10;92.20;;;;;;766657;187;26521;-77
2024/02/23 12:20:53;;;;;;;32.17;15.07;;;10.40;91.90;;;;;;765005;185;26550;-77
2024/02/23 12:23:19;;;;;;;13.60;4.70;;;10.40;91.10;;;;;;762891;188;27236;-77
2024/02/23 12:25:53;;;;;;;8.40;3.10;;;10.20;91.40;;;;;;764288;187;26843;-79
2024/02/23 12:28:19;;;;;;;7.90;3.10;;;10.40;92.30;;;;;;765988;185;27133;-78
2024/02/23 12:30:46;;;;;;;6.73;1.87;;;10.40;92.30;;;;;;767138;186;27075;-79
2024/02/23 12:33:12;;;;;;;9.87;4.03;;;10.40;91.70;;;;;;766916;187;26547;-80
2024/02/23 12:35:38;;;;;;;6.57;2.30;;;10.40;91.70;;;;;;765674;187;27704;-79
2024/02/23 12:38:05;;;;;;;14.10;4.30;;;10.20;91.90;;;;;;766266;186;26565;-78
2024/02/23 12:40:32;;;;;;;13.13;4.33;;;10.20;92.70;;;;;;766477;187;26531;-79
2024/02/23 12:42:58;;;;;;;8.43;3.17;;;10.20;92.50;;;;;;766539;187;26662;-79
2024/02/23 12:45:25;;;;;;;7.53;2.90;;;10.30;92.40;;;;;;767027;184;26567;-78
2024/02/23 12:47:52;;;;;;;37.97;19.03;;;10.50;91.70;;;;;;765658;187;26474;-78
2024/02/23 12:50:19;;;;;;;7.67;2.60;;;10.80;91.60;;;;;;766142;187;26547;-80
2024/02/23 12:52:47;;;;;;;59.20;22.20;;;11.50;88.40;;;;;;766123;187;26517;-78